sensor_id;sensor_type;location;lat;lon;timestamp;temperature;humidity
9939;DHT22;5008;50.656;7.188;2022-08-19T00:00:27;19.10;99.90
9939;DHT22;5008;50.656;7.188;2022-08-19T00:02:54;19.10;99.90
9939;DHT22;5008;50.656;7.188;2022-08-19T00:05:22;19.20;99.90
9939;DHT22;5008;50.656;7.188;2022-08-19T00:07:50;19.10;99.90
9939;DHT22;5008;50.656;7.188;2022-08-19T00:10:18;19.10;99.90
9939;DHT22;5008;50.656;7.188;2022-08-19T00:12:45;18.90;99.90
9939;DHT22;5008;50.656;7.188;2022-08-19T00:15:14;18.90;99.90
9939;DHT22;5008;50.656;7.188;2022-08-19T00:17:43;18.80;99.90
9939;DHT22;5008;50.656;7.188;2022-08-19T00:20:12;18.80;99.90
9939;DHT22;5008;50.656;7.188;2022-08-19T00:22:39;18.90;99.90
9939;DHT22;5008;50.656;7.188;2022-08-19T00:25:08;18.80;99.90
9939;DHT22;5008;50.656;7.188;2022-08-19T00:27:35;18.90;99.90
9939;DHT22;5008;50.656;7.188;2022-08-19T00:30:03;18.90;99.90
9939;DHT22;5008;50.656;7.188;2022-08-19T00:32:30;18.90;99.90
9939;DHT22;5008;50.656;7.188;2022-08-19T00:34:58;18.80;99.90
9939;DHT22;5008;50.656;7.188;2022-08-19T00:37:25;18.80;99.90
9939;DHT22;5008;50.656;7.188;2022-08-19T00:39:52;18.80;99.90
9939;DHT22;5008;50.656;7.188;2022-08-19T00:42:21;18.70;99.90
9939;DHT22;5008;50.656;7.188;2022-08-19T00:44:48;18.80;99.90
9939;DHT22;5008;50.656;7.188;2022-08-19T00:47:16;18.70;99.90
9939;DHT22;5008;50.656;7.188;2022-08-19T00:49:46;18.80;99.90
9939;DHT22;5008;50.656;7.188;2022-08-19T00:52:21;18.80;99.90
9939;DHT22;5008;50.656;7.188;2022-08-19T00:54:49;18.70;99.90
9939;DHT22;5008;50.656;7.188;2022-08-19T00:57:22;18.70;99.90
9939;DHT22;5008;50.656;7.188;2022-08-19T00:59:52;18.70;99.90
9939;DHT22;5008;50.656;7.188;2022-08-19T01:02:20;18.70;99.90
9939;DHT22;5008;50.656;7.188;2022-08-19T01:04:47;18.70;99.90
9939;DHT22;5008;50.656;7.188;2022-08-19T01:07:14;18.60;99.90
9939;DHT22;5008;50.656;7.188;2022-08-19T01:09:42;18.60;99.90
9939;DHT22;5008;50.656;7.188;2022-08-19T01:12:09;18.70;99.90
9939;DHT22;5008;50.656;7.188;2022-08-19T01:14:39;18.70;99.90
9939;DHT22;5008;50.656;7.188;2022-08-19T01:17:08;18.60;99.90
9939;DHT22;5008;50.656;7.188;2022-08-19T01:19:36;18.60;99.90
9939;DHT22;5008;50.656;7.188;2022-08-19T01:22:10;18.70;99.90
9939;DHT22;5008;50.656;7.188;2022-08-19T01:24:40;18.60;99.90
9939;DHT22;5008;50.656;7.188;2022-08-19T01:27:08;18.60;99.90
9939;DHT22;5008;50.656;7.188;2022-08-19T01:29:38;18.50;99.90
9939;DHT22;5008;50.656;7.188;2022-08-19T01:32:06;18.60;99.90
9939;DHT22;5008;50.656;7.188;2022-08-19T01:34:33;18.60;99.90
9939;DHT22;5008;50.656;7.188;2022-08-19T01:37:06;18.60;99.90
9939;DHT22;5008;50.656;7.188;2022-08-19T01:39:34;18.40;99.90
9939;DHT22;5008;50.656;7.188;2022-08-19T01:42:02;18.40;99.90
9939;DHT22;5008;50.656;7.188;2022-08-19T01:44:29;18.30;99.90
9939;DHT22;5008;50.656;7.188;2022-08-19T01:46:56;18.30;99.90
9939;DHT22;5008;50.656;7.188;2022-08-19T01:49:24;18.30;99.90
9939;DHT22;5008;50.656;7.188;2022-08-19T01:51:52;18.20;99.90
9939;DHT22;5008;50.656;7.188;2022-08-19T01:54:20;18.30;99.90
9939;DHT22;5008;50.656;7.188;2022-08-19T01:56:47;18.30;99.90
9939;DHT22;5008;50.656;7.188;2022-08-19T01:59:19;18.30;99.90
9939;DHT22;5008;50.656;7.188;2022-08-19T02:01:46;18.20;99.90
9939;DHT22;5008;50.656;7.188;2022-08-19T02:04:13;18.20;99.90
9939;DHT22;5008;50.656;7.188;2022-08-19T02:06:41;18.30;99.90
9939;DHT22;5008;50.656;7.188;2022-08-19T02:09:08;18.30;99.90
9939;DHT22;5008;50.656;7.188;2022-08-19T02:11:36;18.30;99.90
9939;DHT22;5008;50.656;7.188;2022-08-19T02:14:05;18.40;99.90
9939;DHT22;5008;50.656;7.188;2022-08-19T02:16:35;18.30;99.90
9939;DHT22;5008;50.656;7.188;2022-08-19T02:19:03;18.30;99.90
9939;DHT22;5008;50.656;7.188;2022-08-19T02:21:30;18.30;99.90
9939;DHT22;5008;50.656;7.188;2022-08-19T02:23:57;18.20;99.90
9939;DHT22;5008;50.656;7.188;2022-08-19T02:26:25;18.30;99.90
9939;DHT22;5008;50.656;7.188;2022-08-19T02:28:53;18.30;99.90
9939;DHT22;5008;50.656;7.188;2022-08-19T02:31:23;18.20;99.90
9939;DHT22;5008;50.656;7.188;2022-08-19T02:33:52;18.10;99.90
9939;DHT22;5008;50.656;7.188;2022-08-19T02:36:19;18.10;99.90
9939;DHT22;5008;50.656;7.188;2022-08-19T02:38:46;18.10;99.90
9939;DHT22;5008;50.656;7.188;2022-08-19T02:41:13;18.10;99.90
9939;DHT22;5008;50.656;7.188;2022-08-19T02:43:41;18.10;99.90
9939;DHT22;5008;50.656;7.188;2022-08-19T02:46:13;18.10;99.90
9939;DHT22;5008;50.656;7.188;2022-08-19T02:48:39;18.10;99.90
9939;DHT22;5008;50.656;7.188;2022-08-19T02:51:08;18.10;99.90
9939;DHT22;5008;50.656;7.188;2022-08-19T02:53:35;18.20;99.90
9939;DHT22;5008;50.656;7.188;2022-08-19T02:56:06;18.10;99.90
9939;DHT22;5008;50.656;7.188;2022-08-19T02:58:33;18.10;99.90
9939;DHT22;5008;50.656;7.188;2022-08-19T03:01:00;18.20;99.90
9939;DHT22;5008;50.656;7.188;2022-08-19T03:03:27;18.20;99.90
9939;DHT22;5008;50.656;7.188;2022-08-19T03:06:08;18.10;99.90
9939;DHT22;5008;50.656;7.188;2022-08-19T03:08:35;18.00;99.90
9939;DHT22;5008;50.656;7.188;2022-08-19T03:11:03;18.00;99.90
9939;DHT22;5008;50.656;7.188;2022-08-19T03:13:30;18.00;99.90
9939;DHT22;5008;50.656;7.188;2022-08-19T03:15:57;18.00;99.90
9939;DHT22;5008;50.656;7.188;2022-08-19T03:18:24;18.00;99.90
9939;DHT22;5008;50.656;7.188;2022-08-19T03:20:52;18.00;99.90
9939;DHT22;5008;50.656;7.188;2022-08-19T03:23:21;17.90;99.90
9939;DHT22;5008;50.656;7.188;2022-08-19T03:25:50;17.90;99.90
9939;DHT22;5008;50.656;7.188;2022-08-19T03:28:17;17.90;99.90
9939;DHT22;5008;50.656;7.188;2022-08-19T03:30:55;17.80;99.90
9939;DHT22;5008;50.656;7.188;2022-08-19T03:33:24;17.90;99.90
9939;DHT22;5008;50.656;7.188;2022-08-19T03:36:05;17.90;99.90
9939;DHT22;5008;50.656;7.188;2022-08-19T03:38:36;17.90;99.90
9939;DHT22;5008;50.656;7.188;2022-08-19T03:41:05;17.80;99.90
9939;DHT22;5008;50.656;7.188;2022-08-19T03:43:33;17.80;99.90
9939;DHT22;5008;50.656;7.188;2022-08-19T03:46:02;17.80;99.90
9939;DHT22;5008;50.656;7.188;2022-08-19T03:48:29;17.80;99.90
9939;DHT22;5008;50.656;7.188;2022-08-19T03:50:56;17.80;99.90
9939;DHT22;5008;50.656;7.188;2022-08-19T03:53:24;17.80;99.90
9939;DHT22;5008;50.656;7.188;2022-08-19T03:55:54;17.80;99.90
9939;DHT22;5008;50.656;7.188;2022-08-19T03:58:21;17.80;99.90
9939;DHT22;5008;50.656;7.188;2022-08-19T04:00:48;17.80;99.90
9939;DHT22;5008;50.656;7.188;2022-08-19T04:03:16;17.70;99.90
9939;DHT22;5008;50.656;7.188;2022-08-19T04:05:45;17.80;99.90
9939;DHT22;5008;50.656;7.188;2022-08-19T04:08:13;17.70;99.90
9939;DHT22;5008;50.656;7.188;2022-08-19T04:10:46;17.70;99.90
9939;DHT22;5008;50.656;7.188;2022-08-19T04:13:14;17.70;99.90
9939;DHT22;5008;50.656;7.188;2022-08-19T04:15:42;17.70;99.90
9939;DHT22;5008;50.656;7.188;2022-08-19T04:18:10;17.70;99.90
9939;DHT22;5008;50.656;7.188;2022-08-19T04:20:42;17.60;99.90
9939;DHT22;5008;50.656;7.188;2022-08-19T04:23:10;17.50;99.90
9939;DHT22;5008;50.656;7.188;2022-08-19T04:25:38;17.50;99.90
9939;DHT22;5008;50.656;7.188;2022-08-19T04:28:06;17.50;99.90
9939;DHT22;5008;50.656;7.188;2022-08-19T04:30:41;17.60;99.90
9939;DHT22;5008;50.656;7.188;2022-08-19T04:33:10;17.60;99.90
9939;DHT22;5008;50.656;7.188;2022-08-19T04:35:38;17.50;99.90
9939;DHT22;5008;50.656;7.188;2022-08-19T04:38:06;17.50;99.90
9939;DHT22;5008;50.656;7.188;2022-08-19T04:40:33;17.50;99.90
9939;DHT22;5008;50.656;7.188;2022-08-19T04:43:18;17.50;99.90
9939;DHT22;5008;50.656;7.188;2022-08-19T04:45:46;17.40;99.90
9939;DHT22;5008;50.656;7.188;2022-08-19T04:48:13;17.50;99.90
9939;DHT22;5008;50.656;7.188;2022-08-19T04:50:41;17.50;99.90
9939;DHT22;5008;50.656;7.188;2022-08-19T04:53:08;17.40;99.90
9939;DHT22;5008;50.656;7.188;2022-08-19T04:55:38;17.50;99.90
9939;DHT22;5008;50.656;7.188;2022-08-19T04:58:05;17.40;99.90
9939;DHT22;5008;50.656;7.188;2022-08-19T05:00:32;17.40;99.90
9939;DHT22;5008;50.656;7.188;2022-08-19T05:03:00;17.40;99.90
9939;DHT22;5008;50.656;7.188;2022-08-19T05:05:27;17.40;99.90
9939;DHT22;5008;50.656;7.188;2022-08-19T05:07:56;17.50;99.90
9939;DHT22;5008;50.656;7.188;2022-08-19T05:10:23;17.50;99.90
9939;DHT22;5008;50.656;7.188;2022-08-19T05:12:50;17.50;99.90
9939;DHT22;5008;50.656;7.188;2022-08-19T05:15:16;17.50;99.90
9939;DHT22;5008;50.656;7.188;2022-08-19T05:17:44;17.50;99.90
9939;DHT22;5008;50.656;7.188;2022-08-19T05:20:32;17.60;99.90
9939;DHT22;5008;50.656;7.188;2022-08-19T05:23:17;17.60;99.90
9939;DHT22;5008;50.656;7.188;2022-08-19T05:25:44;17.60;99.90
9939;DHT22;5008;50.656;7.188;2022-08-19T05:28:10;17.60;99.90
9939;DHT22;5008;50.656;7.188;2022-08-19T05:30:37;17.70;99.90
9939;DHT22;5008;50.656;7.188;2022-08-19T05:33:06;17.70;99.90
9939;DHT22;5008;50.656;7.188;2022-08-19T05:35:35;17.70;99.90
9939;DHT22;5008;50.656;7.188;2022-08-19T05:38:02;17.80;99.90
9939;DHT22;5008;50.656;7.188;2022-08-19T05:40:29;17.80;99.90
9939;DHT22;5008;50.656;7.188;2022-08-19T05:42:56;17.80;99.90
9939;DHT22;5008;50.656;7.188;2022-08-19T05:45:23;17.90;99.90
9939;DHT22;5008;50.656;7.188;2022-08-19T05:47:50;17.90;99.90
9939;DHT22;5008;50.656;7.188;2022-08-19T05:50:17;17.90;99.90
9939;DHT22;5008;50.656;7.188;2022-08-19T05:52:45;17.90;99.90
9939;DHT22;5008;50.656;7.188;2022-08-19T05:55:12;18.00;99.90
9939;DHT22;5008;50.656;7.188;2022-08-19T05:57:39;18.00;99.90
9939;DHT22;5008;50.656;7.188;2022-08-19T06:00:07;18.00;99.90
9939;DHT22;5008;50.656;7.188;2022-08-19T06:02:36;18.00;99.90
9939;DHT22;5008;50.656;7.188;2022-08-19T06:05:04;18.10;99.90
9939;DHT22;5008;50.656;7.188;2022-08-19T06:07:34;18.20;99.90
9939;DHT22;5008;50.656;7.188;2022-08-19T06:10:03;18.20;99.90
9939;DHT22;5008;50.656;7.188;2022-08-19T06:12:31;18.30;99.90
9939;DHT22;5008;50.656;7.188;2022-08-19T06:15:00;18.40;99.90
9939;DHT22;5008;50.656;7.188;2022-08-19T06:17:27;18.50;99.90
9939;DHT22;5008;50.656;7.188;2022-08-19T06:19:55;18.50;99.90
9939;DHT22;5008;50.656;7.188;2022-08-19T06:22:22;18.60;99.90
9939;DHT22;5008;50.656;7.188;2022-08-19T06:24:49;18.60;99.90
9939;DHT22;5008;50.656;7.188;2022-08-19T06:27:19;18.60;99.90
9939;DHT22;5008;50.656;7.188;2022-08-19T06:29:46;18.70;99.90
9939;DHT22;5008;50.656;7.188;2022-08-19T06:32:15;18.70;99.90
9939;DHT22;5008;50.656;7.188;2022-08-19T06:34:43;18.80;99.90
9939;DHT22;5008;50.656;7.188;2022-08-19T06:37:11;18.80;99.90
9939;DHT22;5008;50.656;7.188;2022-08-19T06:39:40;18.90;99.90
9939;DHT22;5008;50.656;7.188;2022-08-19T06:42:08;18.90;99.90
9939;DHT22;5008;50.656;7.188;2022-08-19T06:44:40;19.10;99.90
9939;DHT22;5008;50.656;7.188;2022-08-19T06:47:09;19.10;99.90
9939;DHT22;5008;50.656;7.188;2022-08-19T06:49:36;19.10;99.90
9939;DHT22;5008;50.656;7.188;2022-08-19T06:52:03;19.20;99.90
9939;DHT22;5008;50.656;7.188;2022-08-19T06:54:31;19.40;99.90
9939;DHT22;5008;50.656;7.188;2022-08-19T06:57:00;19.40;99.90
9939;DHT22;5008;50.656;7.188;2022-08-19T06:59:28;19.40;99.90
9939;DHT22;5008;50.656;7.188;2022-08-19T07:02:00;19.40;99.90
9939;DHT22;5008;50.656;7.188;2022-08-19T07:04:30;19.60;99.90
9939;DHT22;5008;50.656;7.188;2022-08-19T07:06:59;19.60;99.90
9939;DHT22;5008;50.656;7.188;2022-08-19T07:09:27;19.70;99.90
9939;DHT22;5008;50.656;7.188;2022-08-19T07:11:55;19.70;99.90
9939;DHT22;5008;50.656;7.188;2022-08-19T07:14:25;19.70;99.90
9939;DHT22;5008;50.656;7.188;2022-08-19T07:16:54;19.80;99.90
9939;DHT22;5008;50.656;7.188;2022-08-19T07:19:25;19.90;99.90
9939;DHT22;5008;50.656;7.188;2022-08-19T07:21:54;19.90;99.90
9939;DHT22;5008;50.656;7.188;2022-08-19T07:24:22;20.00;99.90
9939;DHT22;5008;50.656;7.188;2022-08-19T07:26:51;20.10;99.90
9939;DHT22;5008;50.656;7.188;2022-08-19T07:29:20;20.20;99.90
9939;DHT22;5008;50.656;7.188;2022-08-19T07:31:48;20.30;99.90
9939;DHT22;5008;50.656;7.188;2022-08-19T07:34:15;20.30;99.90
9939;DHT22;5008;50.656;7.188;2022-08-19T07:36:44;20.50;99.90
9939;DHT22;5008;50.656;7.188;2022-08-19T07:39:13;20.60;99.90
9939;DHT22;5008;50.656;7.188;2022-08-19T07:41:41;20.70;99.90
9939;DHT22;5008;50.656;7.188;2022-08-19T07:44:08;20.70;99.90
9939;DHT22;5008;50.656;7.188;2022-08-19T07:46:37;20.90;99.90
9939;DHT22;5008;50.656;7.188;2022-08-19T07:49:07;20.90;99.90
9939;DHT22;5008;50.656;7.188;2022-08-19T07:51:35;21.00;99.90
9939;DHT22;5008;50.656;7.188;2022-08-19T07:54:03;21.00;99.90
9939;DHT22;5008;50.656;7.188;2022-08-19T07:56:30;21.10;99.90
9939;DHT22;5008;50.656;7.188;2022-08-19T07:58:57;21.10;99.90
9939;DHT22;5008;50.656;7.188;2022-08-19T08:01:26;21.20;99.90
9939;DHT22;5008;50.656;7.188;2022-08-19T08:03:55;21.20;99.90
9939;DHT22;5008;50.656;7.188;2022-08-19T08:06:39;21.30;99.90
9939;DHT22;5008;50.656;7.188;2022-08-19T08:09:31;21.40;99.90
9939;DHT22;5008;50.656;7.188;2022-08-19T08:12:01;21.40;99.90
9939;DHT22;5008;50.656;7.188;2022-08-19T08:14:31;21.40;99.90
9939;DHT22;5008;50.656;7.188;2022-08-19T08:16:59;21.50;99.90
9939;DHT22;5008;50.656;7.188;2022-08-19T08:19:27;21.50;99.90
9939;DHT22;5008;50.656;7.188;2022-08-19T08:21:55;21.50;99.90
9939;DHT22;5008;50.656;7.188;2022-08-19T08:24:22;21.60;99.90
9939;DHT22;5008;50.656;7.188;2022-08-19T08:26:51;21.70;99.90
9939;DHT22;5008;50.656;7.188;2022-08-19T08:29:17;21.80;99.90
9939;DHT22;5008;50.656;7.188;2022-08-19T08:31:45;21.90;99.90
9939;DHT22;5008;50.656;7.188;2022-08-19T08:34:14;21.90;99.90
9939;DHT22;5008;50.656;7.188;2022-08-19T08:36:42;22.00;99.90
9939;DHT22;5008;50.656;7.188;2022-08-19T08:39:11;22.00;99.90
9939;DHT22;5008;50.656;7.188;2022-08-19T08:41:44;22.30;99.90
9939;DHT22;5008;50.656;7.188;2022-08-19T08:44:21;22.30;99.90
9939;DHT22;5008;50.656;7.188;2022-08-19T08:46:51;22.30;99.90
9939;DHT22;5008;50.656;7.188;2022-08-19T08:49:30;22.40;99.90
9939;DHT22;5008;50.656;7.188;2022-08-19T08:52:03;22.50;99.90
9939;DHT22;5008;50.656;7.188;2022-08-19T08:54:34;22.50;99.90
9939;DHT22;5008;50.656;7.188;2022-08-19T08:57:06;22.40;99.90
9939;DHT22;5008;50.656;7.188;2022-08-19T08:59:38;22.50;99.90
9939;DHT22;5008;50.656;7.188;2022-08-19T09:02:07;22.60;99.90
9939;DHT22;5008;50.656;7.188;2022-08-19T09:04:35;22.80;99.90
9939;DHT22;5008;50.656;7.188;2022-08-19T09:07:13;22.80;99.90
9939;DHT22;5008;50.656;7.188;2022-08-19T09:09:45;22.70;99.90
9939;DHT22;5008;50.656;7.188;2022-08-19T09:12:19;22.70;99.90
9939;DHT22;5008;50.656;7.188;2022-08-19T09:14:54;22.80;99.90
9939;DHT22;5008;50.656;7.188;2022-08-19T09:17:24;22.80;99.90
9939;DHT22;5008;50.656;7.188;2022-08-19T09:19:56;22.70;99.90
9939;DHT22;5008;50.656;7.188;2022-08-19T09:22:24;22.80;99.90
9939;DHT22;5008;50.656;7.188;2022-08-19T09:24:52;22.90;99.90
9939;DHT22;5008;50.656;7.188;2022-08-19T09:27:20;22.90;99.90
9939;DHT22;5008;50.656;7.188;2022-08-19T09:29:50;22.90;99.90
9939;DHT22;5008;50.656;7.188;2022-08-19T09:32:18;22.90;99.90
9939;DHT22;5008;50.656;7.188;2022-08-19T09:34:44;22.90;99.90
9939;DHT22;5008;50.656;7.188;2022-08-19T09:37:12;22.90;99.90
9939;DHT22;5008;50.656;7.188;2022-08-19T09:39:39;23.00;99.90
9939;DHT22;5008;50.656;7.188;2022-08-19T09:42:08;23.10;99.90
9939;DHT22;5008;50.656;7.188;2022-08-19T09:44:37;23.20;99.90
9939;DHT22;5008;50.656;7.188;2022-08-19T09:47:06;23.20;99.90
9939;DHT22;5008;50.656;7.188;2022-08-19T09:49:33;23.30;99.90
9939;DHT22;5008;50.656;7.188;2022-08-19T09:52:00;23.40;99.90
9939;DHT22;5008;50.656;7.188;2022-08-19T09:54:27;23.40;99.90
9939;DHT22;5008;50.656;7.188;2022-08-19T09:56:54;23.40;99.90
9939;DHT22;5008;50.656;7.188;2022-08-19T09:59:22;23.50;99.90
9939;DHT22;5008;50.656;7.188;2022-08-19T10:01:49;23.60;99.90
9939;DHT22;5008;50.656;7.188;2022-08-19T10:04:20;23.60;99.90
9939;DHT22;5008;50.656;7.188;2022-08-19T10:06:49;23.70;99.90
9939;DHT22;5008;50.656;7.188;2022-08-19T10:09:18;23.60;99.90
9939;DHT22;5008;50.656;7.188;2022-08-19T10:11:47;23.60;99.90
9939;DHT22;5008;50.656;7.188;2022-08-19T10:14:15;23.70;99.90
9939;DHT22;5008;50.656;7.188;2022-08-19T10:16:42;23.70;99.90
9939;DHT22;5008;50.656;7.188;2022-08-19T10:19:09;23.70;99.90
9939;DHT22;5008;50.656;7.188;2022-08-19T10:21:37;23.80;99.90
9939;DHT22;5008;50.656;7.188;2022-08-19T10:24:05;23.80;99.90
9939;DHT22;5008;50.656;7.188;2022-08-19T10:26:38;23.90;99.90
9939;DHT22;5008;50.656;7.188;2022-08-19T10:29:07;23.80;99.90
9939;DHT22;5008;50.656;7.188;2022-08-19T10:31:35;23.90;99.90
9939;DHT22;5008;50.656;7.188;2022-08-19T10:34:02;23.90;99.90
9939;DHT22;5008;50.656;7.188;2022-08-19T10:36:31;24.00;99.90
9939;DHT22;5008;50.656;7.188;2022-08-19T10:39:04;24.10;99.90
9939;DHT22;5008;50.656;7.188;2022-08-19T10:41:33;24.20;99.90
9939;DHT22;5008;50.656;7.188;2022-08-19T10:44:04;24.10;99.90
9939;DHT22;5008;50.656;7.188;2022-08-19T10:46:32;24.10;99.90
9939;DHT22;5008;50.656;7.188;2022-08-19T10:49:00;24.20;99.90
9939;DHT22;5008;50.656;7.188;2022-08-19T10:51:27;24.30;99.90
9939;DHT22;5008;50.656;7.188;2022-08-19T10:54:13;24.30;99.90
9939;DHT22;5008;50.656;7.188;2022-08-19T10:56:41;24.20;99.90
9939;DHT22;5008;50.656;7.188;2022-08-19T10:59:17;24.20;99.90
9939;DHT22;5008;50.656;7.188;2022-08-19T11:01:46;24.30;99.90
9939;DHT22;5008;50.656;7.188;2022-08-19T11:04:13;24.40;99.90
9939;DHT22;5008;50.656;7.188;2022-08-19T11:06:45;24.50;99.90
9939;DHT22;5008;50.656;7.188;2022-08-19T11:09:14;24.50;99.90
9939;DHT22;5008;50.656;7.188;2022-08-19T11:11:42;24.50;99.90
9939;DHT22;5008;50.656;7.188;2022-08-19T11:14:11;24.60;99.90
9939;DHT22;5008;50.656;7.188;2022-08-19T11:16:39;24.70;99.90
9939;DHT22;5008;50.656;7.188;2022-08-19T11:19:08;24.70;99.90
9939;DHT22;5008;50.656;7.188;2022-08-19T11:21:37;24.80;99.90
9939;DHT22;5008;50.656;7.188;2022-08-19T11:24:06;24.90;99.90
9939;DHT22;5008;50.656;7.188;2022-08-19T11:26:36;24.90;99.90
9939;DHT22;5008;50.656;7.188;2022-08-19T11:29:04;24.90;99.90
9939;DHT22;5008;50.656;7.188;2022-08-19T11:31:34;24.90;99.90
9939;DHT22;5008;50.656;7.188;2022-08-19T11:34:06;24.90;99.90
9939;DHT22;5008;50.656;7.188;2022-08-19T11:36:34;25.00;99.90
9939;DHT22;5008;50.656;7.188;2022-08-19T11:39:04;24.90;99.90
9939;DHT22;5008;50.656;7.188;2022-08-19T11:41:31;24.90;99.90
9939;DHT22;5008;50.656;7.188;2022-08-19T11:43:59;24.90;99.90
9939;DHT22;5008;50.656;7.188;2022-08-19T11:46:28;24.80;99.90
9939;DHT22;5008;50.656;7.188;2022-08-19T11:48:55;24.90;99.90
9939;DHT22;5008;50.656;7.188;2022-08-19T11:51:24;25.10;99.90
9939;DHT22;5008;50.656;7.188;2022-08-19T11:53:52;25.10;99.90
9939;DHT22;5008;50.656;7.188;2022-08-19T11:56:22;25.10;99.90
9939;DHT22;5008;50.656;7.188;2022-08-19T11:58:50;25.10;99.90
9939;DHT22;5008;50.656;7.188;2022-08-19T12:01:24;25.10;99.90
9939;DHT22;5008;50.656;7.188;2022-08-19T12:03:53;25.00;99.90
9939;DHT22;5008;50.656;7.188;2022-08-19T12:06:22;25.10;99.90
9939;DHT22;5008;50.656;7.188;2022-08-19T12:08:54;25.10;99.90
9939;DHT22;5008;50.656;7.188;2022-08-19T12:11:21;25.10;99.90
9939;DHT22;5008;50.656;7.188;2022-08-19T12:13:48;25.20;99.90
9939;DHT22;5008;50.656;7.188;2022-08-19T12:16:17;25.20;99.90
9939;DHT22;5008;50.656;7.188;2022-08-19T12:18:46;25.20;99.90
9939;DHT22;5008;50.656;7.188;2022-08-19T12:21:13;25.10;99.90
9939;DHT22;5008;50.656;7.188;2022-08-19T12:23:40;25.00;99.90
9939;DHT22;5008;50.656;7.188;2022-08-19T12:26:11;25.20;99.90
9939;DHT22;5008;50.656;7.188;2022-08-19T12:28:38;25.20;99.90
9939;DHT22;5008;50.656;7.188;2022-08-19T12:31:07;25.30;99.90
9939;DHT22;5008;50.656;7.188;2022-08-19T12:33:34;25.40;99.90
9939;DHT22;5008;50.656;7.188;2022-08-19T12:36:04;25.40;99.90
9939;DHT22;5008;50.656;7.188;2022-08-19T12:38:32;25.30;99.90
9939;DHT22;5008;50.656;7.188;2022-08-19T12:40:59;25.30;99.90
9939;DHT22;5008;50.656;7.188;2022-08-19T12:43:28;25.30;99.90
9939;DHT22;5008;50.656;7.188;2022-08-19T12:45:56;25.40;99.90
9939;DHT22;5008;50.656;7.188;2022-08-19T12:48:23;25.40;99.90
9939;DHT22;5008;50.656;7.188;2022-08-19T12:50:50;25.50;99.90
9939;DHT22;5008;50.656;7.188;2022-08-19T12:53:18;25.50;99.90
9939;DHT22;5008;50.656;7.188;2022-08-19T12:55:45;25.60;99.90
9939;DHT22;5008;50.656;7.188;2022-08-19T12:58:12;25.60;99.90
9939;DHT22;5008;50.656;7.188;2022-08-19T13:00:40;25.50;99.90
9939;DHT22;5008;50.656;7.188;2022-08-19T13:03:07;25.50;99.90
9939;DHT22;5008;50.656;7.188;2022-08-19T13:05:34;25.60;99.90
9939;DHT22;5008;50.656;7.188;2022-08-19T13:08:01;25.60;99.90
9939;DHT22;5008;50.656;7.188;2022-08-19T13:10:31;25.70;99.90
9939;DHT22;5008;50.656;7.188;2022-08-19T13:13:01;25.90;99.90
9939;DHT22;5008;50.656;7.188;2022-08-19T13:15:29;25.90;99.90
9939;DHT22;5008;50.656;7.188;2022-08-19T13:17:57;26.10;99.90
9939;DHT22;5008;50.656;7.188;2022-08-19T13:20:24;26.00;99.90
9939;DHT22;5008;50.656;7.188;2022-08-19T13:22:51;26.10;99.90
9939;DHT22;5008;50.656;7.188;2022-08-19T13:25:18;26.30;99.90
9939;DHT22;5008;50.656;7.188;2022-08-19T13:27:47;26.20;99.90
9939;DHT22;5008;50.656;7.188;2022-08-19T13:30:16;26.70;99.90
9939;DHT22;5008;50.656;7.188;2022-08-19T13:33:01;27.60;99.50
9939;DHT22;5008;50.656;7.188;2022-08-19T13:35:42;28.00;99.10
9939;DHT22;5008;50.656;7.188;2022-08-19T13:38:10;28.00;98.30
9939;DHT22;5008;50.656;7.188;2022-08-19T13:40:38;27.80;98.50
9939;DHT22;5008;50.656;7.188;2022-08-19T13:43:06;27.60;98.30
9939;DHT22;5008;50.656;7.188;2022-08-19T13:45:34;27.80;97.60
9939;DHT22;5008;50.656;7.188;2022-08-19T13:48:02;28.10;97.70
9939;DHT22;5008;50.656;7.188;2022-08-19T13:50:33;28.30;97.90
9939;DHT22;5008;50.656;7.188;2022-08-19T13:53:01;28.40;96.70
9939;DHT22;5008;50.656;7.188;2022-08-19T13:55:30;28.00;96.60
9939;DHT22;5008;50.656;7.188;2022-08-19T13:57:58;27.70;96.70
9939;DHT22;5008;50.656;7.188;2022-08-19T14:00:34;27.80;96.20
9939;DHT22;5008;50.656;7.188;2022-08-19T14:03:01;27.40;97.20
9939;DHT22;5008;50.656;7.188;2022-08-19T14:05:29;26.90;96.80
9939;DHT22;5008;50.656;7.188;2022-08-19T14:07:57;26.70;97.30
9939;DHT22;5008;50.656;7.188;2022-08-19T14:10:25;26.50;98.90
9939;DHT22;5008;50.656;7.188;2022-08-19T14:12:53;26.20;98.60
9939;DHT22;5008;50.656;7.188;2022-08-19T14:15:21;26.20;98.30
9939;DHT22;5008;50.656;7.188;2022-08-19T14:17:51;26.20;98.60
9939;DHT22;5008;50.656;7.188;2022-08-19T14:20:18;26.40;98.30
9939;DHT22;5008;50.656;7.188;2022-08-19T14:22:46;26.60;98.00
9939;DHT22;5008;50.656;7.188;2022-08-19T14:25:17;26.70;98.20
9939;DHT22;5008;50.656;7.188;2022-08-19T14:27:45;26.70;97.90
9939;DHT22;5008;50.656;7.188;2022-08-19T14:30:15;26.70;97.80
9939;DHT22;5008;50.656;7.188;2022-08-19T14:32:42;26.70;97.70
9939;DHT22;5008;50.656;7.188;2022-08-19T14:35:12;26.60;97.60
9939;DHT22;5008;50.656;7.188;2022-08-19T14:37:41;26.70;97.20
9939;DHT22;5008;50.656;7.188;2022-08-19T14:40:09;26.70;96.20
9939;DHT22;5008;50.656;7.188;2022-08-19T14:42:35;26.60;96.80
9939;DHT22;5008;50.656;7.188;2022-08-19T14:45:03;26.40;96.50
9939;DHT22;5008;50.656;7.188;2022-08-19T14:47:31;26.30;96.40
9939;DHT22;5008;50.656;7.188;2022-08-19T14:49:58;26.20;97.80
9939;DHT22;5008;50.656;7.188;2022-08-19T14:52:26;26.10;98.80
9939;DHT22;5008;50.656;7.188;2022-08-19T14:54:53;26.10;97.20
9939;DHT22;5008;50.656;7.188;2022-08-19T14:57:20;26.20;97.00
9939;DHT22;5008;50.656;7.188;2022-08-19T14:59:47;26.30;96.80
9939;DHT22;5008;50.656;7.188;2022-08-19T15:02:14;26.30;96.80
9939;DHT22;5008;50.656;7.188;2022-08-19T15:04:41;26.20;97.10
9939;DHT22;5008;50.656;7.188;2022-08-19T15:07:09;26.20;97.30
9939;DHT22;5008;50.656;7.188;2022-08-19T15:09:37;26.30;97.40
9939;DHT22;5008;50.656;7.188;2022-08-19T15:12:04;26.40;96.80
9939;DHT22;5008;50.656;7.188;2022-08-19T15:14:31;26.60;96.30
9939;DHT22;5008;50.656;7.188;2022-08-19T15:17:01;26.60;96.20
9939;DHT22;5008;50.656;7.188;2022-08-19T15:19:29;26.50;96.60
9939;DHT22;5008;50.656;7.188;2022-08-19T15:21:56;26.50;97.10
9939;DHT22;5008;50.656;7.188;2022-08-19T15:24:23;26.40;96.60
9939;DHT22;5008;50.656;7.188;2022-08-19T15:26:52;26.30;97.50
9939;DHT22;5008;50.656;7.188;2022-08-19T15:29:21;26.20;96.90
9939;DHT22;5008;50.656;7.188;2022-08-19T15:31:50;26.20;97.10
9939;DHT22;5008;50.656;7.188;2022-08-19T15:34:16;26.30;96.50
9939;DHT22;5008;50.656;7.188;2022-08-19T15:36:43;26.40;96.40
9939;DHT22;5008;50.656;7.188;2022-08-19T15:39:10;26.40;96.50
9939;DHT22;5008;50.656;7.188;2022-08-19T15:41:37;26.30;96.60
9939;DHT22;5008;50.656;7.188;2022-08-19T15:44:12;26.30;97.50
9939;DHT22;5008;50.656;7.188;2022-08-19T15:46:41;26.40;96.60
9939;DHT22;5008;50.656;7.188;2022-08-19T15:49:09;26.40;96.70
9939;DHT22;5008;50.656;7.188;2022-08-19T15:51:37;26.80;96.20
9939;DHT22;5008;50.656;7.188;2022-08-19T15:54:07;27.40;95.50
9939;DHT22;5008;50.656;7.188;2022-08-19T15:56:34;28.00;94.70
9939;DHT22;5008;50.656;7.188;2022-08-19T15:59:19;28.50;93.90
9939;DHT22;5008;50.656;7.188;2022-08-19T16:02:04;29.10;93.20
9939;DHT22;5008;50.656;7.188;2022-08-19T16:04:48;29.70;92.40
9939;DHT22;5008;50.656;7.188;2022-08-19T16:07:32;30.10;92.10
9939;DHT22;5008;50.656;7.188;2022-08-19T16:09:59;31.10;90.20
9939;DHT22;5008;50.656;7.188;2022-08-19T16:12:25;30.30;90.10